createdAt,value
2023-03-23T15:58:28.323Z,16.80
2023-03-23T16:00:55.492Z,16.70
2023-03-23T16:03:28.691Z,16.70
2023-03-23T16:05:57.605Z,16.70
2023-03-23T16:08:24.460Z,16.70
2023-03-23T16:10:52.569Z,16.60
2023-03-23T16:13:19.577Z,16.50
2023-03-23T16:15:48.218Z,16.50
2023-03-23T16:18:22.164Z,16.40
2023-03-23T16:20:50.571Z,16.30
2023-03-23T16:23:18.095Z,16.10
2023-03-23T16:25:46.890Z,16.00
2023-03-23T16:28:14.510Z,16.00
2023-03-23T16:30:43.581Z,15.90
2023-03-23T16:33:10.985Z,15.80
2023-03-23T16:35:38.031Z,15.80
2023-03-23T16:38:07.340Z,15.80
2023-03-23T16:40:37.157Z,15.80
2023-03-23T16:43:08.551Z,15.70
2023-03-23T16:45:37.011Z,15.70
2023-03-23T16:48:05.466Z,15.70
2023-03-23T16:50:33.213Z,15.70
2023-03-23T16:53:00.131Z,15.70
2023-03-23T16:55:27.369Z,15.70
2023-03-23T16:58:05.366Z,15.60
2023-03-23T17:00:43.605Z,15.60
2023-03-23T17:03:11.381Z,15.50
2023-03-23T17:05:38.731Z,15.50
2023-03-23T17:08:06.063Z,15.50
2023-03-23T17:10:33.801Z,15.40
2023-03-23T17:13:01.360Z,15.30
2023-03-23T17:15:28.651Z,15.30
2023-03-23T17:17:55.597Z,15.30
2023-03-23T17:20:23.060Z,15.30
2023-03-23T17:22:50.065Z,15.20
2023-03-23T17:25:16.831Z,15.10
2023-03-23T17:27:43.750Z,15.10
2023-03-23T17:30:11.758Z,15.00
2023-03-23T17:32:39.346Z,15.10
2023-03-23T17:35:07.004Z,15.00
2023-03-23T17:37:34.473Z,15.00
2023-03-23T17:40:01.635Z,15.00
2023-03-23T17:42:29.601Z,15.00
2023-03-23T17:44:56.744Z,15.00
2023-03-23T17:47:24.199Z,15.00
2023-03-23T17:49:54.037Z,15.00
2023-03-23T17:52:21.552Z,15.00
2023-03-23T17:54:50.547Z,15.00
2023-03-23T17:57:18.646Z,15.00
2023-03-23T17:59:46.211Z,15.10
2023-03-23T18:02:14.211Z,15.10
2023-03-23T18:04:42.955Z,15.10
2023-03-23T18:07:10.959Z,15.10
2023-03-23T18:09:44.052Z,15.20
2023-03-23T18:12:18.797Z,15.20
2023-03-23T18:14:47.957Z,15.20
2023-03-23T18:17:14.819Z,15.20
2023-03-23T18:19:44.837Z,15.30
2023-03-23T18:22:12.845Z,15.30
2023-03-23T18:24:39.673Z,15.20
2023-03-23T18:27:06.461Z,15.30
2023-03-23T18:29:33.378Z,15.30
2023-03-23T18:32:01.570Z,15.30
2023-03-23T18:34:28.612Z,15.30
2023-03-23T18:36:58.127Z,15.30
2023-03-23T18:39:25.078Z,15.30
2023-03-23T18:41:51.856Z,15.40
2023-03-23T18:44:19.678Z,15.40
2023-03-23T18:46:47.736Z,15.40
2023-03-23T18:49:14.548Z,15.40
2023-03-23T18:51:41.318Z,15.40
2023-03-23T18:54:14.857Z,15.40
2023-03-23T18:56:41.959Z,15.40
2023-03-23T18:59:10.026Z,15.40
2023-03-23T19:01:40.363Z,15.40
2023-03-23T19:04:09.583Z,15.40
2023-03-23T19:06:37.062Z,15.40
2023-03-23T19:09:10.196Z,15.40
2023-03-23T19:11:37.473Z,15.30
2023-03-23T19:14:05.074Z,15.30
2023-03-23T19:16:35.830Z,15.30
2023-03-23T19:19:04.089Z,15.20
2023-03-23T19:21:32.794Z,15.20
2023-03-23T19:24:02.660Z,15.20
2023-03-23T19:26:36.615Z,15.10
2023-03-23T19:31:37.876Z,14.90
2023-03-23T19:34:04.768Z,14.80
2023-03-23T19:36:33.264Z,14.70
2023-03-23T19:39:02.928Z,14.70
2023-03-23T19:41:30.896Z,14.60
2023-03-23T19:43:59.401Z,14.50
2023-03-23T19:46:28.500Z,14.40
2023-03-23T19:48:57.582Z,14.30
2023-03-23T19:51:24.755Z,14.30
2023-03-23T19:53:52.104Z,14.20
2023-03-23T19:56:21.769Z,14.20
2023-03-23T19:58:49.642Z,14.10
2023-03-23T20:01:17.577Z,14.10
2023-03-23T20:03:46.578Z,14.00
2023-03-23T20:06:16.840Z,14.00
2023-03-23T20:08:46.059Z,13.90
2023-03-23T20:11:17.305Z,13.90
2023-03-23T20:13:46.122Z,13.80
2023-03-23T20:16:14.487Z,13.80
2023-03-23T20:18:46.327Z,13.80
2023-03-23T20:21:18.958Z,13.70
2023-03-23T20:23:48.866Z,13.70
2023-03-23T20:26:23.230Z,13.70
2023-03-23T20:28:50.722Z,13.70
2023-03-23T20:31:23.742Z,13.70
2023-03-23T20:34:01.060Z,13.70
2023-03-23T20:36:35.871Z,13.70
2023-03-23T20:39:10.732Z,13.70
2023-03-23T20:41:39.080Z,13.60
2023-03-23T20:44:09.245Z,13.70
2023-03-23T20:46:38.235Z,13.70
2023-03-23T20:49:06.064Z,13.70
2023-03-23T20:51:40.150Z,13.70
2023-03-23T20:54:07.086Z,13.70
2023-03-23T20:56:34.920Z,13.70
2023-03-23T20:59:02.536Z,13.70
2023-03-23T21:01:29.480Z,13.70
2023-03-23T21:03:57.912Z,13.70
2023-03-23T21:06:28.569Z,13.70
2023-03-23T21:08:57.189Z,13.70
2023-03-23T21:11:27.045Z,13.60
2023-03-23T21:13:54.482Z,13.70
2023-03-23T21:16:29.166Z,13.70
2023-03-23T21:18:56.951Z,13.70
2023-03-23T21:21:27.341Z,13.60
2023-03-23T21:23:57.599Z,13.70
2023-03-23T21:26:28.472Z,13.60
2023-03-23T21:29:00.075Z,13.60
2023-03-23T21:31:30.767Z,13.60
2023-03-23T21:33:59.283Z,13.60
2023-03-23T21:36:27.552Z,13.60
2023-03-23T21:38:55.877Z,13.50
2023-03-23T21:41:23.615Z,13.50
2023-03-23T21:43:50.706Z,13.50
2023-03-23T21:46:18.419Z,13.50
2023-03-23T21:48:52.855Z,13.50
2023-03-23T21:51:25.875Z,13.40
2023-03-23T21:53:55.318Z,13.40
2023-03-23T21:56:25.404Z,13.40
2023-03-23T21:58:55.680Z,13.40
2023-03-23T22:01:23.304Z,13.40
2023-03-23T22:03:50.830Z,13.40
2023-03-23T22:06:24.905Z,13.30
2023-03-23T22:08:52.663Z,13.30
2023-03-23T22:11:23.232Z,13.20
2023-03-23T22:13:51.024Z,13.20
2023-03-23T22:16:19.167Z,13.20
2023-03-23T22:18:49.163Z,13.20
2023-03-23T22:21:19.810Z,13.20
2023-03-23T22:23:46.897Z,13.10
2023-03-23T22:26:16.632Z,13.20
2023-03-23T22:28:45.839Z,13.10
2023-03-23T22:31:18.990Z,13.10
2023-03-23T22:33:48.796Z,13.10
2023-03-23T22:36:17.632Z,13.10
2023-03-23T22:38:46.760Z,13.20
2023-03-23T22:41:23.624Z,13.20
2023-03-23T22:43:51.595Z,13.20
2023-03-23T22:46:19.207Z,13.20
2023-03-23T22:48:48.276Z,13.10
2023-03-23T22:51:17.417Z,13.10
2023-03-23T22:53:45.291Z,13.10
2023-03-23T22:56:14.614Z,13.10
2023-03-23T22:58:41.508Z,13.10
2023-03-23T23:01:19.884Z,13.10
2023-03-23T23:03:47.726Z,13.10
2023-03-23T23:06:16.690Z,13.10
2023-03-23T23:08:45.687Z,13.00
2023-03-23T23:11:16.254Z,13.00
2023-03-23T23:13:44.745Z,12.90
2023-03-23T23:16:22.069Z,13.00
2023-03-23T23:18:49.254Z,12.90
2023-03-23T23:21:19.181Z,12.90
2023-03-23T23:23:49.528Z,12.80
2023-03-23T23:26:17.730Z,12.80
2023-03-23T23:28:45.775Z,12.80
2023-03-23T23:31:22.666Z,12.70
2023-03-23T23:33:49.992Z,12.70
2023-03-23T23:36:18.303Z,12.60
2023-03-23T23:38:45.481Z,12.50
2023-03-23T23:41:14.644Z,12.50
2023-03-23T23:43:41.542Z,12.50
2023-03-23T23:46:09.815Z,12.40
2023-03-23T23:48:43.252Z,12.40
2023-03-23T23:51:10.202Z,12.30
2023-03-23T23:53:37.305Z,12.30
2023-03-23T23:56:06.123Z,12.30
2023-03-23T23:58:33.002Z,12.30
